Terminal Aerodrome Forecast
Issued by NWS Wilmington, OH

Current Version | Previous Version | Graphics & Text | Print | Product List | Glossary On
Versions: 1 2 3 4 5 6 7 8 9 10 11 12 13 14 15 16 17 18 19 20 21 22 23 24 25 26 27
000
FTUS41 KILN 211700
TAFCMH
TAF
KCMH 211740Z 2118/2218 21005KT 5SM -SHRA BR SCT050 OVC080
      TEMPO 2118/2119 2SM -TSRA BR BKN040CB
     FM212000 20007KT P6SM SCT025 BKN080
     FM220000 20004KT P6SM BKN080
     FM220400 22003KT P6SM -SHRA VCTS BKN050CB
     FM220800 VRB03KT P6SM VCTS BKN040CB
     FM221200 19004KT P6SM BKN040=

USA.gov is the U.S. government's official web portal to all federal, state and local government web resources and services.